sensor_id;sensor_type;location;lat;lon;timestamp;P1;durP1;ratioP1;P2;durP2;ratioP2
23338;SDS011;11841;49.368;20.962;2022-08-01T00:02:27;1.67;;;1.58;;
23338;SDS011;11841;49.368;20.962;2022-08-01T00:04:54;2.30;;;1.75;;
23338;SDS011;11841;49.368;20.962;2022-08-01T00:07:21;2.08;;;1.88;;
23338;SDS011;11841;49.368;20.962;2022-08-01T00:09:48;1.75;;;1.65;;
23338;SDS011;11841;49.368;20.962;2022-08-01T00:12:14;3.97;;;1.90;;
23338;SDS011;11841;49.368;20.962;2022-08-01T00:14:41;2.30;;;2.10;;
23338;SDS011;11841;49.368;20.962;2022-08-01T00:17:08;2.75;;;2.10;;
23338;SDS011;11841;49.368;20.962;2022-08-01T00:19:34;2.05;;;1.88;;
23338;SDS011;11841;49.368;20.962;2022-08-01T00:22:01;3.03;;;2.72;;
23338;SDS011;11841;49.368;20.962;2022-08-01T00:24:28;2.83;;;2.10;;
23338;SDS011;11841;49.368;20.962;2022-08-01T00:26:54;3.97;;;2.58;;
23338;SDS011;11841;49.368;20.962;2022-08-01T00:29:21;3.60;;;2.92;;
23338;SDS011;11841;49.368;20.962;2022-08-01T00:32:07;2.75;;;2.28;;
23338;SDS011;11841;49.368;20.962;2022-08-01T00:34:34;2.67;;;2.47;;
23338;SDS011;11841;49.368;20.962;2022-08-01T00:37:01;3.47;;;2.33;;
23338;SDS011;11841;49.368;20.962;2022-08-01T00:39:28;3.22;;;2.55;;
23338;SDS011;11841;49.368;20.962;2022-08-01T00:41:54;2.33;;;2.10;;
23338;SDS011;11841;49.368;20.962;2022-08-01T00:44:26;2.50;;;2.22;;
23338;SDS011;11841;49.368;20.962;2022-08-01T00:46:53;2.75;;;2.17;;
23338;SDS011;11841;49.368;20.962;2022-08-01T00:49:20;2.28;;;2.13;;
23338;SDS011;11841;49.368;20.962;2022-08-01T00:51:47;1.85;;;1.75;;
23338;SDS011;11841;49.368;20.962;2022-08-01T00:54:14;9.18;;;3.28;;
23338;SDS011;11841;49.368;20.962;2022-08-01T00:56:42;2.42;;;2.22;;
23338;SDS011;11841;49.368;20.962;2022-08-01T00:59:11;2.75;;;2.15;;
23338;SDS011;11841;49.368;20.962;2022-08-01T01:01:40;3.25;;;2.20;;
23338;SDS011;11841;49.368;20.962;2022-08-01T01:04:12;4.70;;;2.47;;
23338;SDS011;11841;49.368;20.962;2022-08-01T01:15:00;4.30;;;2.80;;
23338;SDS011;11841;49.368;20.962;2022-08-01T01:20:17;3.15;;;2.67;;
23338;SDS011;11841;49.368;20.962;2022-08-01T01:28:34;2.97;;;2.65;;
23338;SDS011;11841;49.368;20.962;2022-08-01T01:31:07;3.58;;;2.40;;
23338;SDS011;11841;49.368;20.962;2022-08-01T01:33:39;2.60;;;2.35;;
23338;SDS011;11841;49.368;20.962;2022-08-01T01:36:12;3.42;;;2.88;;
23338;SDS011;11841;49.368;20.962;2022-08-01T01:41:11;4.80;;;2.55;;
23338;SDS011;11841;49.368;20.962;2022-08-01T01:43:39;6.13;;;2.70;;
23338;SDS011;11841;49.368;20.962;2022-08-01T01:46:06;5.50;;;2.65;;
23338;SDS011;11841;49.368;20.962;2022-08-01T01:48:35;4.53;;;2.90;;
23338;SDS011;11841;49.368;20.962;2022-08-01T01:51:03;3.30;;;2.50;;
23338;SDS011;11841;49.368;20.962;2022-08-01T01:53:32;3.83;;;3.15;;
23338;SDS011;11841;49.368;20.962;2022-08-01T01:56:00;3.50;;;2.75;;
23338;SDS011;11841;49.368;20.962;2022-08-01T01:58:29;7.75;;;2.75;;
23338;SDS011;11841;49.368;20.962;2022-08-01T02:00:59;3.50;;;2.88;;
23338;SDS011;11841;49.368;20.962;2022-08-01T02:03:29;3.70;;;3.13;;
23338;SDS011;11841;49.368;20.962;2022-08-01T02:05:57;6.07;;;2.83;;
23338;SDS011;11841;49.368;20.962;2022-08-01T02:08:25;5.10;;;2.80;;
23338;SDS011;11841;49.368;20.962;2022-08-01T02:10:56;4.65;;;3.00;;
23338;SDS011;11841;49.368;20.962;2022-08-01T02:13:43;7.07;;;3.20;;
23338;SDS011;11841;49.368;20.962;2022-08-01T02:16:13;4.95;;;2.65;;
23338;SDS011;11841;49.368;20.962;2022-08-01T02:18:41;4.03;;;2.60;;
23338;SDS011;11841;49.368;20.962;2022-08-01T02:21:09;6.93;;;2.97;;
23338;SDS011;11841;49.368;20.962;2022-08-01T02:23:38;4.55;;;2.85;;
23338;SDS011;11841;49.368;20.962;2022-08-01T02:26:15;5.40;;;3.00;;
23338;SDS011;11841;49.368;20.962;2022-08-01T02:28:47;2.95;;;2.65;;
23338;SDS011;11841;49.368;20.962;2022-08-01T02:31:17;3.78;;;3.08;;
23338;SDS011;11841;49.368;20.962;2022-08-01T02:33:50;4.07;;;2.70;;
23338;SDS011;11841;49.368;20.962;2022-08-01T02:36:33;4.55;;;2.85;;
23338;SDS011;11841;49.368;20.962;2022-08-01T02:39:03;4.20;;;2.70;;
23338;SDS011;11841;49.368;20.962;2022-08-01T02:41:36;5.40;;;3.35;;
23338;SDS011;11841;49.368;20.962;2022-08-01T02:44:07;4.22;;;3.60;;
23338;SDS011;11841;49.368;20.962;2022-08-01T02:46:38;5.15;;;3.58;;
23338;SDS011;11841;49.368;20.962;2022-08-01T02:49:07;9.02;;;4.07;;
23338;SDS011;11841;49.368;20.962;2022-08-01T02:54:05;3.92;;;3.47;;
23338;SDS011;11841;49.368;20.962;2022-08-01T02:56:34;5.45;;;2.75;;
23338;SDS011;11841;49.368;20.962;2022-08-01T02:59:05;4.63;;;2.63;;
23338;SDS011;11841;49.368;20.962;2022-08-01T03:01:38;3.28;;;2.75;;
23338;SDS011;11841;49.368;20.962;2022-08-01T03:04:08;4.13;;;2.88;;
23338;SDS011;11841;49.368;20.962;2022-08-01T03:06:36;4.18;;;3.00;;
23338;SDS011;11841;49.368;20.962;2022-08-01T03:09:05;5.05;;;2.80;;
23338;SDS011;11841;49.368;20.962;2022-08-01T03:11:32;3.40;;;2.97;;
23338;SDS011;11841;49.368;20.962;2022-08-01T03:14:04;6.03;;;3.20;;
23338;SDS011;11841;49.368;20.962;2022-08-01T03:16:35;4.20;;;2.83;;
23338;SDS011;11841;49.368;20.962;2022-08-01T03:19:04;3.72;;;2.50;;
23338;SDS011;11841;49.368;20.962;2022-08-01T03:24:01;3.88;;;2.85;;
23338;SDS011;11841;49.368;20.962;2022-08-01T03:26:30;3.00;;;2.63;;
23338;SDS011;11841;49.368;20.962;2022-08-01T03:29:02;5.50;;;2.55;;
23338;SDS011;11841;49.368;20.962;2022-08-01T03:31:34;5.95;;;3.83;;
23338;SDS011;11841;49.368;20.962;2022-08-01T03:34:02;4.43;;;3.05;;
23338;SDS011;11841;49.368;20.962;2022-08-01T03:36:31;3.80;;;2.92;;
23338;SDS011;11841;49.368;20.962;2022-08-01T03:39:03;3.90;;;3.20;;
23338;SDS011;11841;49.368;20.962;2022-08-01T03:41:34;3.08;;;2.53;;
23338;SDS011;11841;49.368;20.962;2022-08-01T03:44:10;3.00;;;2.65;;
23338;SDS011;11841;49.368;20.962;2022-08-01T03:46:48;4.72;;;3.08;;
23338;SDS011;11841;49.368;20.962;2022-08-01T03:49:19;6.18;;;2.42;;
23338;SDS011;11841;49.368;20.962;2022-08-01T03:51:49;3.30;;;2.67;;
23338;SDS011;11841;49.368;20.962;2022-08-01T03:54:19;3.50;;;2.80;;
23338;SDS011;11841;49.368;20.962;2022-08-01T03:56:49;3.75;;;2.50;;
23338;SDS011;11841;49.368;20.962;2022-08-01T03:59:18;4.00;;;3.05;;
23338;SDS011;11841;49.368;20.962;2022-08-01T04:01:46;4.90;;;2.95;;
23338;SDS011;11841;49.368;20.962;2022-08-01T04:04:14;3.30;;;2.70;;
23338;SDS011;11841;49.368;20.962;2022-08-01T04:06:41;4.38;;;3.05;;
23338;SDS011;11841;49.368;20.962;2022-08-01T04:09:10;7.40;;;3.55;;
23338;SDS011;11841;49.368;20.962;2022-08-01T04:11:39;3.55;;;3.25;;
23338;SDS011;11841;49.368;20.962;2022-08-01T04:14:07;5.82;;;3.28;;
23338;SDS011;11841;49.368;20.962;2022-08-01T04:16:34;5.85;;;2.97;;
23338;SDS011;11841;49.368;20.962;2022-08-01T04:19:01;6.75;;;2.92;;
23338;SDS011;11841;49.368;20.962;2022-08-01T04:21:28;4.88;;;3.63;;
23338;SDS011;11841;49.368;20.962;2022-08-01T04:23:59;4.38;;;3.60;;
23338;SDS011;11841;49.368;20.962;2022-08-01T04:26:32;5.45;;;3.35;;
23338;SDS011;11841;49.368;20.962;2022-08-01T04:29:01;9.65;;;2.92;;
23338;SDS011;11841;49.368;20.962;2022-08-01T04:31:31;4.72;;;3.20;;
23338;SDS011;11841;49.368;20.962;2022-08-01T04:33:58;6.10;;;3.15;;
23338;SDS011;11841;49.368;20.962;2022-08-01T04:36:28;3.35;;;2.63;;
23338;SDS011;11841;49.368;20.962;2022-08-01T04:38:58;5.97;;;2.85;;
23338;SDS011;11841;49.368;20.962;2022-08-01T04:41:27;5.20;;;2.55;;
23338;SDS011;11841;49.368;20.962;2022-08-01T04:46:25;4.07;;;3.00;;
23338;SDS011;11841;49.368;20.962;2022-08-01T04:48:54;6.70;;;2.95;;
23338;SDS011;11841;49.368;20.962;2022-08-01T04:51:22;6.22;;;2.80;;
23338;SDS011;11841;49.368;20.962;2022-08-01T04:53:49;7.88;;;2.42;;
23338;SDS011;11841;49.368;20.962;2022-08-01T04:56:20;3.53;;;2.60;;
23338;SDS011;11841;49.368;20.962;2022-08-01T04:58:47;5.07;;;2.13;;
23338;SDS011;11841;49.368;20.962;2022-08-01T05:01:14;4.40;;;2.85;;
23338;SDS011;11841;49.368;20.962;2022-08-01T05:03:40;3.33;;;2.63;;
23338;SDS011;11841;49.368;20.962;2022-08-01T05:06:07;4.30;;;3.20;;
23338;SDS011;11841;49.368;20.962;2022-08-01T05:08:34;3.65;;;2.88;;
23338;SDS011;11841;49.368;20.962;2022-08-01T05:11:02;5.25;;;2.17;;
23338;SDS011;11841;49.368;20.962;2022-08-01T05:13:29;6.88;;;3.15;;
23338;SDS011;11841;49.368;20.962;2022-08-01T05:15:56;2.67;;;2.22;;
23338;SDS011;11841;49.368;20.962;2022-08-01T05:18:23;4.00;;;2.30;;
23338;SDS011;11841;49.368;20.962;2022-08-01T05:20:53;3.25;;;2.25;;
23338;SDS011;11841;49.368;20.962;2022-08-01T05:23:19;4.18;;;2.50;;
23338;SDS011;11841;49.368;20.962;2022-08-01T05:26:06;3.25;;;2.50;;
23338;SDS011;11841;49.368;20.962;2022-08-01T05:28:34;3.97;;;2.60;;
23338;SDS011;11841;49.368;20.962;2022-08-01T05:31:01;7.78;;;2.47;;
23338;SDS011;11841;49.368;20.962;2022-08-01T05:33:28;3.17;;;2.53;;
23338;SDS011;11841;49.368;20.962;2022-08-01T05:35:55;5.65;;;2.53;;
23338;SDS011;11841;49.368;20.962;2022-08-01T05:38:21;4.15;;;2.83;;
23338;SDS011;11841;49.368;20.962;2022-08-01T05:40:48;4.80;;;2.33;;
23338;SDS011;11841;49.368;20.962;2022-08-01T05:43:14;5.45;;;3.15;;
23338;SDS011;11841;49.368;20.962;2022-08-01T05:45:41;7.32;;;3.05;;
23338;SDS011;11841;49.368;20.962;2022-08-01T05:48:08;4.38;;;2.63;;
23338;SDS011;11841;49.368;20.962;2022-08-01T05:50:34;2.58;;;2.17;;
23338;SDS011;11841;49.368;20.962;2022-08-01T05:53:01;3.03;;;2.53;;
23338;SDS011;11841;49.368;20.962;2022-08-01T05:55:27;3.90;;;2.25;;
23338;SDS011;11841;49.368;20.962;2022-08-01T05:57:54;6.00;;;2.40;;
23338;SDS011;11841;49.368;20.962;2022-08-01T06:00:21;3.88;;;2.35;;
23338;SDS011;11841;49.368;20.962;2022-08-01T06:02:48;5.43;;;2.85;;
23338;SDS011;11841;49.368;20.962;2022-08-01T06:05:15;4.95;;;2.58;;
23338;SDS011;11841;49.368;20.962;2022-08-01T06:07:41;2.70;;;2.50;;
23338;SDS011;11841;49.368;20.962;2022-08-01T06:10:08;5.22;;;2.10;;
23338;SDS011;11841;49.368;20.962;2022-08-01T06:12:35;7.80;;;3.03;;
23338;SDS011;11841;49.368;20.962;2022-08-01T06:15:03;5.10;;;2.70;;
23338;SDS011;11841;49.368;20.962;2022-08-01T06:17:30;2.88;;;2.50;;
23338;SDS011;11841;49.368;20.962;2022-08-01T06:19:57;3.50;;;2.88;;
23338;SDS011;11841;49.368;20.962;2022-08-01T06:22:23;8.52;;;2.60;;
23338;SDS011;11841;49.368;20.962;2022-08-01T06:24:51;2.72;;;2.22;;
23338;SDS011;11841;49.368;20.962;2022-08-01T06:27:17;5.05;;;2.50;;
23338;SDS011;11841;49.368;20.962;2022-08-01T06:29:47;2.42;;;2.22;;
23338;SDS011;11841;49.368;20.962;2022-08-01T06:32:19;5.95;;;2.35;;
23338;SDS011;11841;49.368;20.962;2022-08-01T06:34:52;3.03;;;2.67;;
23338;SDS011;11841;49.368;20.962;2022-08-01T06:37:20;4.65;;;2.15;;
23338;SDS011;11841;49.368;20.962;2022-08-01T06:39:47;2.92;;;2.45;;
23338;SDS011;11841;49.368;20.962;2022-08-01T06:42:15;2.78;;;2.20;;
23338;SDS011;11841;49.368;20.962;2022-08-01T06:44:42;3.78;;;2.45;;
23338;SDS011;11841;49.368;20.962;2022-08-01T06:47:09;8.00;;;2.08;;
23338;SDS011;11841;49.368;20.962;2022-08-01T06:49:36;3.72;;;2.55;;
23338;SDS011;11841;49.368;20.962;2022-08-01T06:52:02;3.70;;;3.22;;
23338;SDS011;11841;49.368;20.962;2022-08-01T06:54:30;3.40;;;2.33;;
23338;SDS011;11841;49.368;20.962;2022-08-01T06:56:56;2.75;;;2.20;;
23338;SDS011;11841;49.368;20.962;2022-08-01T06:59:23;3.65;;;2.53;;
23338;SDS011;11841;49.368;20.962;2022-08-01T07:01:50;6.18;;;2.88;;
23338;SDS011;11841;49.368;20.962;2022-08-01T07:04:16;3.45;;;2.42;;
23338;SDS011;11841;49.368;20.962;2022-08-01T07:06:43;4.13;;;2.58;;
23338;SDS011;11841;49.368;20.962;2022-08-01T07:09:09;3.05;;;2.67;;
23338;SDS011;11841;49.368;20.962;2022-08-01T07:11:40;3.33;;;2.40;;
23338;SDS011;11841;49.368;20.962;2022-08-01T07:14:07;3.78;;;2.60;;
23338;SDS011;11841;49.368;20.962;2022-08-01T07:16:34;5.18;;;2.85;;
23338;SDS011;11841;49.368;20.962;2022-08-01T07:19:01;3.90;;;2.75;;
23338;SDS011;11841;49.368;20.962;2022-08-01T07:21:27;3.80;;;3.25;;
23338;SDS011;11841;49.368;20.962;2022-08-01T07:24:10;3.47;;;3.10;;
23338;SDS011;11841;49.368;20.962;2022-08-01T07:26:41;5.13;;;3.75;;
23338;SDS011;11841;49.368;20.962;2022-08-01T07:31:45;3.42;;;2.92;;
23338;SDS011;11841;49.368;20.962;2022-08-01T07:34:12;5.50;;;2.60;;
23338;SDS011;11841;49.368;20.962;2022-08-01T07:36:38;3.08;;;2.78;;
23338;SDS011;11841;49.368;20.962;2022-08-01T07:39:05;4.90;;;3.00;;
23338;SDS011;11841;49.368;20.962;2022-08-01T07:41:32;4.72;;;2.72;;
23338;SDS011;11841;49.368;20.962;2022-08-01T07:44:18;4.60;;;2.92;;
23338;SDS011;11841;49.368;20.962;2022-08-01T07:46:45;4.60;;;3.53;;
23338;SDS011;11841;49.368;20.962;2022-08-01T07:49:11;3.50;;;2.85;;
23338;SDS011;11841;49.368;20.962;2022-08-01T07:51:38;4.55;;;2.72;;
23338;SDS011;11841;49.368;20.962;2022-08-01T07:54:05;4.70;;;2.60;;
23338;SDS011;11841;49.368;20.962;2022-08-01T07:56:31;3.17;;;2.67;;
23338;SDS011;11841;49.368;20.962;2022-08-01T07:58:58;5.97;;;2.80;;
23338;SDS011;11841;49.368;20.962;2022-08-01T08:01:24;4.40;;;3.03;;
23338;SDS011;11841;49.368;20.962;2022-08-01T08:03:51;3.28;;;2.97;;
23338;SDS011;11841;49.368;20.962;2022-08-01T08:06:18;4.22;;;2.75;;
23338;SDS011;11841;49.368;20.962;2022-08-01T08:08:44;5.20;;;2.75;;
23338;SDS011;11841;49.368;20.962;2022-08-01T08:11:11;3.33;;;2.88;;
23338;SDS011;11841;49.368;20.962;2022-08-01T08:13:37;3.67;;;2.95;;
23338;SDS011;11841;49.368;20.962;2022-08-01T08:16:04;3.75;;;2.80;;
23338;SDS011;11841;49.368;20.962;2022-08-01T08:18:30;4.78;;;2.42;;
23338;SDS011;11841;49.368;20.962;2022-08-01T08:20:57;4.28;;;2.75;;
23338;SDS011;11841;49.368;20.962;2022-08-01T08:23:28;7.43;;;3.10;;
23338;SDS011;11841;49.368;20.962;2022-08-01T08:26:13;3.95;;;3.22;;
23338;SDS011;11841;49.368;20.962;2022-08-01T08:28:40;4.00;;;2.97;;
23338;SDS011;11841;49.368;20.962;2022-08-01T08:31:07;3.38;;;2.95;;
23338;SDS011;11841;49.368;20.962;2022-08-01T08:33:54;7.60;;;2.55;;
23338;SDS011;11841;49.368;20.962;2022-08-01T08:36:21;5.93;;;2.92;;
23338;SDS011;11841;49.368;20.962;2022-08-01T08:38:56;5.18;;;2.85;;
23338;SDS011;11841;49.368;20.962;2022-08-01T08:41:23;2.80;;;2.50;;
23338;SDS011;11841;49.368;20.962;2022-08-01T08:43:50;3.67;;;2.50;;
23338;SDS011;11841;49.368;20.962;2022-08-01T08:46:16;3.25;;;2.70;;
23338;SDS011;11841;49.368;20.962;2022-08-01T08:48:54;3.35;;;3.05;;
23338;SDS011;11841;49.368;20.962;2022-08-01T08:51:23;3.67;;;3.05;;
23338;SDS011;11841;49.368;20.962;2022-08-01T08:53:56;8.55;;;4.38;;
23338;SDS011;11841;49.368;20.962;2022-08-01T08:56:24;4.57;;;2.90;;
23338;SDS011;11841;49.368;20.962;2022-08-01T08:58:53;2.97;;;2.70;;
23338;SDS011;11841;49.368;20.962;2022-08-01T09:01:20;4.03;;;3.10;;
23338;SDS011;11841;49.368;20.962;2022-08-01T09:03:48;4.50;;;2.90;;
23338;SDS011;11841;49.368;20.962;2022-08-01T09:06:15;3.90;;;2.67;;
23338;SDS011;11841;49.368;20.962;2022-08-01T09:08:41;5.13;;;2.67;;
23338;SDS011;11841;49.368;20.962;2022-08-01T09:11:08;3.40;;;2.78;;
23338;SDS011;11841;49.368;20.962;2022-08-01T09:13:34;4.60;;;2.22;;
23338;SDS011;11841;49.368;20.962;2022-08-01T09:16:01;4.45;;;2.67;;
23338;SDS011;11841;49.368;20.962;2022-08-01T09:21:13;8.23;;;2.35;;
23338;SDS011;11841;49.368;20.962;2022-08-01T09:23:44;3.90;;;2.10;;
23338;SDS011;11841;49.368;20.962;2022-08-01T09:26:41;4.75;;;2.00;;
23338;SDS011;11841;49.368;20.962;2022-08-01T09:29:07;2.25;;;1.40;;
23338;SDS011;11841;49.368;20.962;2022-08-01T09:32:04;3.60;;;1.48;;
23338;SDS011;11841;49.368;20.962;2022-08-01T09:34:32;1.70;;;1.35;;
23338;SDS011;11841;49.368;20.962;2022-08-01T09:37:00;6.05;;;1.48;;
23338;SDS011;11841;49.368;20.962;2022-08-01T09:41:56;2.90;;;1.30;;
23338;SDS011;11841;49.368;20.962;2022-08-01T09:44:43;3.08;;;1.73;;
23338;SDS011;11841;49.368;20.962;2022-08-01T09:47:20;2.20;;;1.40;;
23338;SDS011;11841;49.368;20.962;2022-08-01T09:49:57;9.43;;;1.52;;
23338;SDS011;11841;49.368;20.962;2022-08-01T09:52:25;2.38;;;1.45;;
23338;SDS011;11841;49.368;20.962;2022-08-01T09:54:56;1.52;;;1.35;;
23338;SDS011;11841;49.368;20.962;2022-08-01T09:57:24;3.25;;;1.83;;
23338;SDS011;11841;49.368;20.962;2022-08-01T09:59:53;3.88;;;1.70;;
23338;SDS011;11841;49.368;20.962;2022-08-01T10:05:03;2.20;;;1.88;;
23338;SDS011;11841;49.368;20.962;2022-08-01T10:07:34;2.38;;;1.65;;
23338;SDS011;11841;49.368;20.962;2022-08-01T10:10:13;5.15;;;1.70;;
23338;SDS011;11841;49.368;20.962;2022-08-01T10:12:42;1.63;;;1.52;;
23338;SDS011;11841;49.368;20.962;2022-08-01T10:15:10;4.03;;;1.80;;
23338;SDS011;11841;49.368;20.962;2022-08-01T10:17:46;3.47;;;1.85;;
23338;SDS011;11841;49.368;20.962;2022-08-01T10:20:29;1.70;;;1.60;;
23338;SDS011;11841;49.368;20.962;2022-08-01T10:22:58;3.17;;;1.60;;
23338;SDS011;11841;49.368;20.962;2022-08-01T10:25:35;2.33;;;1.80;;
23338;SDS011;11841;49.368;20.962;2022-08-01T10:28:13;1.60;;;1.50;;
23338;SDS011;11841;49.368;20.962;2022-08-01T10:30:49;1.85;;;1.42;;
23338;SDS011;11841;49.368;20.962;2022-08-01T10:33:20;4.63;;;1.70;;
23338;SDS011;11841;49.368;20.962;2022-08-01T10:36:08;3.50;;;1.50;;
23338;SDS011;11841;49.368;20.962;2022-08-01T10:38:35;4.68;;;2.38;;
23338;SDS011;11841;49.368;20.962;2022-08-01T10:41:03;5.95;;;1.85;;
23338;SDS011;11841;49.368;20.962;2022-08-01T10:43:34;2.17;;;1.63;;
23338;SDS011;11841;49.368;20.962;2022-08-01T10:46:01;4.38;;;2.10;;
23338;SDS011;11841;49.368;20.962;2022-08-01T10:48:39;2.55;;;1.92;;
23338;SDS011;11841;49.368;20.962;2022-08-01T10:51:13;4.60;;;2.15;;
23338;SDS011;11841;49.368;20.962;2022-08-01T10:54:02;4.90;;;2.13;;
23338;SDS011;11841;49.368;20.962;2022-08-01T10:56:45;6.10;;;2.30;;
23338;SDS011;11841;49.368;20.962;2022-08-01T10:59:14;3.00;;;1.63;;
23338;SDS011;11841;49.368;20.962;2022-08-01T11:02:07;3.78;;;1.90;;
23338;SDS011;11841;49.368;20.962;2022-08-01T11:10:05;2.50;;;2.00;;
23338;SDS011;11841;49.368;20.962;2022-08-01T11:12:41;4.82;;;1.88;;
23338;SDS011;11841;49.368;20.962;2022-08-01T11:20:13;2.00;;;1.85;;
23338;SDS011;11841;49.368;20.962;2022-08-01T11:28:24;2.85;;;2.20;;
23338;SDS011;11841;49.368;20.962;2022-08-01T11:38:45;2.75;;;1.65;;
23338;SDS011;11841;49.368;20.962;2022-08-01T11:52:23;2.15;;;1.90;;
23338;SDS011;11841;49.368;20.962;2022-08-01T11:54:54;6.35;;;2.00;;
23338;SDS011;11841;49.368;20.962;2022-08-01T11:57:41;4.80;;;2.30;;
23338;SDS011;11841;49.368;20.962;2022-08-01T12:00:15;2.80;;;2.08;;
23338;SDS011;11841;49.368;20.962;2022-08-01T12:02:48;4.80;;;2.50;;
23338;SDS011;11841;49.368;20.962;2022-08-01T12:05:24;3.03;;;2.08;;
23338;SDS011;11841;49.368;20.962;2022-08-01T12:07:52;3.20;;;2.63;;
23338;SDS011;11841;49.368;20.962;2022-08-01T12:12:53;2.93;;;1.60;;
23338;SDS011;11841;49.368;20.962;2022-08-01T12:15:22;3.20;;;2.10;;
23338;SDS011;11841;49.368;20.962;2022-08-01T12:17:51;5.03;;;1.77;;
23338;SDS011;11841;49.368;20.962;2022-08-01T12:20:28;2.33;;;2.08;;
23338;SDS011;11841;49.368;20.962;2022-08-01T12:22:58;4.10;;;2.05;;
23338;SDS011;11841;49.368;20.962;2022-08-01T12:25:26;2.83;;;2.15;;
23338;SDS011;11841;49.368;20.962;2022-08-01T12:27:52;2.97;;;2.03;;
23338;SDS011;11841;49.368;20.962;2022-08-01T12:30:22;8.20;;;2.67;;
23338;SDS011;11841;49.368;20.962;2022-08-01T12:32:51;8.02;;;2.20;;
23338;SDS011;11841;49.368;20.962;2022-08-01T12:35:20;3.75;;;1.92;;
23338;SDS011;11841;49.368;20.962;2022-08-01T12:37:53;2.88;;;2.22;;
23338;SDS011;11841;49.368;20.962;2022-08-01T12:40:22;6.07;;;1.90;;
23338;SDS011;11841;49.368;20.962;2022-08-01T12:42:50;2.10;;;1.83;;
23338;SDS011;11841;49.368;20.962;2022-08-01T12:47:47;7.35;;;2.17;;
23338;SDS011;11841;49.368;20.962;2022-08-01T12:50:16;4.05;;;2.20;;
23338;SDS011;11841;49.368;20.962;2022-08-01T12:52:46;6.10;;;2.75;;
23338;SDS011;11841;49.368;20.962;2022-08-01T12:57:42;3.33;;;2.13;;
23338;SDS011;11841;49.368;20.962;2022-08-01T13:00:12;6.28;;;2.10;;
23338;SDS011;11841;49.368;20.962;2022-08-01T13:02:41;5.82;;;2.30;;
23338;SDS011;11841;49.368;20.962;2022-08-01T13:05:08;2.78;;;2.20;;
23338;SDS011;11841;49.368;20.962;2022-08-01T13:07:36;4.70;;;2.30;;
23338;SDS011;11841;49.368;20.962;2022-08-01T13:10:11;2.97;;;2.10;;
23338;SDS011;11841;49.368;20.962;2022-08-01T13:12:39;5.60;;;1.87;;
23338;SDS011;11841;49.368;20.962;2022-08-01T13:15:17;3.55;;;2.30;;
23338;SDS011;11841;49.368;20.962;2022-08-01T13:17:44;3.35;;;2.10;;
23338;SDS011;11841;49.368;20.962;2022-08-01T13:20:20;7.15;;;2.05;;
23338;SDS011;11841;49.368;20.962;2022-08-01T13:22:51;4.50;;;1.90;;
23338;SDS011;11841;49.368;20.962;2022-08-01T13:25:18;2.95;;;2.13;;
23338;SDS011;11841;49.368;20.962;2022-08-01T13:27:48;3.95;;;2.05;;
23338;SDS011;11841;49.368;20.962;2022-08-01T13:30:19;6.00;;;2.28;;
23338;SDS011;11841;49.368;20.962;2022-08-01T13:32:58;3.28;;;2.22;;
23338;SDS011;11841;49.368;20.962;2022-08-01T13:35:26;9.93;;;3.00;;
23338;SDS011;11841;49.368;20.962;2022-08-01T13:37:53;5.73;;;2.80;;
23338;SDS011;11841;49.368;20.962;2022-08-01T13:40:25;4.93;;;2.47;;
23338;SDS011;11841;49.368;20.962;2022-08-01T13:42:53;2.75;;;2.50;;
23338;SDS011;11841;49.368;20.962;2022-08-01T13:45:23;4.40;;;2.42;;
23338;SDS011;11841;49.368;20.962;2022-08-01T13:47:51;5.25;;;2.42;;
23338;SDS011;11841;49.368;20.962;2022-08-01T13:50:38;4.05;;;2.53;;
23338;SDS011;11841;49.368;20.962;2022-08-01T13:53:05;2.63;;;2.42;;
23338;SDS011;11841;49.368;20.962;2022-08-01T13:55:31;2.50;;;2.15;;
23338;SDS011;11841;49.368;20.962;2022-08-01T13:58:00;4.03;;;2.85;;
23338;SDS011;11841;49.368;20.962;2022-08-01T14:00:27;5.32;;;2.22;;
23338;SDS011;11841;49.368;20.962;2022-08-01T14:02:53;2.90;;;2.60;;
23338;SDS011;11841;49.368;20.962;2022-08-01T14:05:20;6.72;;;2.90;;
23338;SDS011;11841;49.368;20.962;2022-08-01T14:07:46;3.03;;;2.33;;
23338;SDS011;11841;49.368;20.962;2022-08-01T14:10:14;2.75;;;2.50;;
23338;SDS011;11841;49.368;20.962;2022-08-01T14:12:46;3.72;;;2.45;;
23338;SDS011;11841;49.368;20.962;2022-08-01T14:15:16;8.50;;;2.25;;
23338;SDS011;11841;49.368;20.962;2022-08-01T14:18:02;10.35;;;2.55;;
23338;SDS011;11841;49.368;20.962;2022-08-01T14:20:31;3.10;;;2.80;;
23338;SDS011;11841;49.368;20.962;2022-08-01T14:22:58;5.18;;;2.45;;
23338;SDS011;11841;49.368;20.962;2022-08-01T14:25:25;3.03;;;2.47;;
23338;SDS011;11841;49.368;20.962;2022-08-01T14:28:11;4.78;;;2.55;;
23338;SDS011;11841;49.368;20.962;2022-08-01T14:30:38;2.97;;;2.35;;
23338;SDS011;11841;49.368;20.962;2022-08-01T14:33:07;5.72;;;2.17;;
23338;SDS011;11841;49.368;20.962;2022-08-01T14:35:33;10.93;;;2.10;;
23338;SDS011;11841;49.368;20.962;2022-08-01T14:38:20;5.53;;;2.95;;
23338;SDS011;11841;49.368;20.962;2022-08-01T14:40:58;5.20;;;2.58;;
23338;SDS011;11841;49.368;20.962;2022-08-01T14:43:25;5.13;;;2.08;;
23338;SDS011;11841;49.368;20.962;2022-08-01T14:45:58;3.55;;;2.40;;
23338;SDS011;11841;49.368;20.962;2022-08-01T14:48:25;5.22;;;2.20;;
23338;SDS011;11841;49.368;20.962;2022-08-01T14:50:52;5.72;;;2.72;;
23338;SDS011;11841;49.368;20.962;2022-08-01T14:53:19;4.18;;;2.55;;
23338;SDS011;11841;49.368;20.962;2022-08-01T14:55:46;2.50;;;2.25;;
23338;SDS011;11841;49.368;20.962;2022-08-01T14:58:12;7.15;;;2.70;;
23338;SDS011;11841;49.368;20.962;2022-08-01T15:00:39;4.75;;;2.78;;
23338;SDS011;11841;49.368;20.962;2022-08-01T15:03:06;3.83;;;2.38;;
23338;SDS011;11841;49.368;20.962;2022-08-01T15:05:33;7.28;;;3.17;;
23338;SDS011;11841;49.368;20.962;2022-08-01T15:07:59;4.05;;;2.42;;
23338;SDS011;11841;49.368;20.962;2022-08-01T15:10:26;2.88;;;2.63;;
23338;SDS011;11841;49.368;20.962;2022-08-01T15:12:53;4.57;;;3.22;;
23338;SDS011;11841;49.368;20.962;2022-08-01T15:15:20;3.45;;;2.55;;
23338;SDS011;11841;49.368;20.962;2022-08-01T15:17:47;4.03;;;2.60;;
23338;SDS011;11841;49.368;20.962;2022-08-01T15:20:13;5.65;;;2.45;;
23338;SDS011;11841;49.368;20.962;2022-08-01T15:22:40;9.15;;;4.43;;
23338;SDS011;11841;49.368;20.962;2022-08-01T15:25:06;4.82;;;3.22;;
23338;SDS011;11841;49.368;20.962;2022-08-01T15:27:33;4.93;;;2.70;;
23338;SDS011;11841;49.368;20.962;2022-08-01T15:30:00;6.82;;;3.45;;
23338;SDS011;11841;49.368;20.962;2022-08-01T15:32:27;6.70;;;3.33;;
23338;SDS011;11841;49.368;20.962;2022-08-01T15:34:53;4.35;;;2.80;;
23338;SDS011;11841;49.368;20.962;2022-08-01T15:37:20;3.17;;;2.17;;
23338;SDS011;11841;49.368;20.962;2022-08-01T15:39:47;5.30;;;2.75;;
23338;SDS011;11841;49.368;20.962;2022-08-01T15:42:19;3.25;;;2.95;;
23338;SDS011;11841;49.368;20.962;2022-08-01T15:44:52;5.93;;;2.60;;
23338;SDS011;11841;49.368;20.962;2022-08-01T15:47:18;11.23;;;3.20;;
23338;SDS011;11841;49.368;20.962;2022-08-01T15:49:45;4.43;;;3.28;;
23338;SDS011;11841;49.368;20.962;2022-08-01T15:52:17;3.35;;;2.83;;
23338;SDS011;11841;49.368;20.962;2022-08-01T15:54:48;4.22;;;2.72;;
23338;SDS011;11841;49.368;20.962;2022-08-01T15:57:15;6.75;;;3.58;;
23338;SDS011;11841;49.368;20.962;2022-08-01T15:59:42;5.18;;;2.95;;
23338;SDS011;11841;49.368;20.962;2022-08-01T16:02:09;7.35;;;3.00;;
23338;SDS011;11841;49.368;20.962;2022-08-01T16:04:36;6.30;;;3.38;;
23338;SDS011;11841;49.368;20.962;2022-08-01T16:07:04;3.42;;;2.95;;
23338;SDS011;11841;49.368;20.962;2022-08-01T16:09:31;6.65;;;2.92;;